createdAt,value
2023-05-24T02:33:35.560Z,9.10
2023-05-24T02:36:05.288Z,9.20
2023-05-24T02:38:34.878Z,9.20
2023-05-24T02:41:04.490Z,9.30
2023-05-24T02:43:34.054Z,9.30
2023-05-24T02:46:03.641Z,9.20
2023-05-24T02:48:34.134Z,9.30
2023-05-24T02:51:04.928Z,9.40
2023-05-24T02:53:34.878Z,9.50
2023-05-24T02:56:04.372Z,9.60
2023-05-24T02:58:33.840Z,9.60
2023-05-24T03:01:03.429Z,9.70
2023-05-24T03:03:33.072Z,9.80
2023-05-24T03:06:02.658Z,9.90
2023-05-24T03:08:32.412Z,10.00
2023-05-24T03:11:01.939Z,10.10
2023-05-24T03:13:31.583Z,10.20
2023-05-24T03:16:01.058Z,10.30
2023-05-24T03:18:30.525Z,10.30
2023-05-24T03:21:00.100Z,10.40
2023-05-24T03:23:29.730Z,10.40
2023-05-24T03:25:59.215Z,10.50
2023-05-24T03:28:29.210Z,10.50
2023-05-24T03:30:58.695Z,10.60
2023-05-24T03:33:28.158Z,10.70
2023-05-24T03:35:57.609Z,10.80
2023-05-24T03:38:27.132Z,10.70
2023-05-24T03:40:56.606Z,10.70
2023-05-24T03:43:26.099Z,10.80
2023-05-24T03:45:55.756Z,10.80
2023-05-24T03:48:25.328Z,10.90
2023-05-24T03:50:54.816Z,11.00
2023-05-24T03:53:24.399Z,11.00
2023-05-24T03:55:53.908Z,11.10
2023-05-24T03:58:24.360Z,11.20
2023-05-24T04:00:53.935Z,11.20
2023-05-24T09:27:17.311Z,7.30
2023-05-24T09:29:51.271Z,7.20
2023-05-24T09:32:21.730Z,7.10
2023-05-24T09:34:51.612Z,7.10
2023-05-24T09:37:29.901Z,7.00
2023-05-24T09:40:02.112Z,7.00
2023-05-24T09:42:32.449Z,6.90
2023-05-24T09:45:14.026Z,6.80
2023-05-24T09:47:44.222Z,6.80
2023-05-24T09:50:18.862Z,6.80
2023-05-24T09:52:48.698Z,6.80
2023-05-24T09:55:19.551Z,6.80
2023-05-24T09:58:15.508Z,6.80
2023-05-24T10:00:45.594Z,6.70
2023-05-24T10:03:16.810Z,6.60
2023-05-24T10:05:50.326Z,6.50
2023-05-24T10:08:20.323Z,6.50
2023-05-24T10:10:50.166Z,6.50
2023-05-24T10:13:19.852Z,6.40
2023-05-24T10:15:49.683Z,6.40
2023-05-24T10:18:20.273Z,6.40
2023-05-24T10:20:51.440Z,6.30
2023-05-24T10:23:25.861Z,6.30
2023-05-24T10:46:13.241Z,6.10
2023-05-24T10:48:43.653Z,5.90
2023-05-24T10:51:31.425Z,5.90
2023-05-24T10:54:12.315Z,5.90
2023-05-24T10:56:46.742Z,5.90
2023-05-24T10:59:41.963Z,5.80
2023-05-24T11:02:16.574Z,5.80
2023-05-24T11:04:48.701Z,5.80
2023-05-24T11:07:19.289Z,5.80
2023-05-24T11:09:54.351Z,5.90
2023-05-24T11:12:24.450Z,5.90
2023-05-24T11:14:54.665Z,5.90
2023-05-24T11:17:25.097Z,5.90
2023-05-24T11:19:55.629Z,5.90
2023-05-24T11:22:33.924Z,6.00
2023-05-24T11:25:07.688Z,6.00
2023-05-24T11:27:37.647Z,6.00
2023-05-24T11:30:08.293Z,6.00
2023-05-24T11:32:37.805Z,6.10
2023-05-24T11:35:11.777Z,6.10
2023-05-24T11:40:18.330Z,6.10
2023-05-24T11:42:48.635Z,6.10
2023-05-24T11:45:20.593Z,6.10
2023-05-24T11:47:51.715Z,6.10
2023-05-24T11:50:26.962Z,6.10
2023-05-24T11:53:03.947Z,6.20
2023-05-24T11:55:34.934Z,6.20
2023-05-24T11:58:08.321Z,6.20
2023-05-24T12:00:38.487Z,6.10
2023-05-24T12:03:10.358Z,6.10
2023-05-24T12:05:40.027Z,6.20
2023-05-24T12:08:12.344Z,6.10
2023-05-24T12:10:44.835Z,6.10
2023-05-24T12:13:27.454Z,6.10
2023-05-24T12:15:57.823Z,6.00
2023-05-24T12:18:30.544Z,6.00
2023-05-24T12:21:00.267Z,5.90
2023-05-24T12:23:31.274Z,5.90
2023-05-24T12:26:04.332Z,5.90
2023-05-24T12:28:41.763Z,6.00
2023-05-24T12:31:12.537Z,5.90
2023-05-24T12:33:42.032Z,5.90
2023-05-24T12:41:13.021Z,5.70
2023-05-24T12:43:45.963Z,5.60
2023-05-24T12:46:15.577Z,5.50
2023-05-24T12:48:45.689Z,5.50
2023-05-24T12:51:15.484Z,5.40
2023-05-24T12:53:45.535Z,5.40
2023-05-24T12:56:15.993Z,5.50
2023-05-24T12:58:45.488Z,5.50
2023-05-24T13:01:15.161Z,5.50
2023-05-24T13:03:44.779Z,5.40
2023-05-24T13:06:15.267Z,5.40
2023-05-24T13:08:44.683Z,5.30
2023-05-24T13:11:14.565Z,5.20
2023-05-24T13:13:46.650Z,5.10
2023-05-24T13:16:16.620Z,5.10
2023-05-24T13:18:48.305Z,5.10
2023-05-24T13:21:18.302Z,5.00
2023-05-24T13:23:48.563Z,4.90
2023-05-24T13:26:18.275Z,4.90
2023-05-24T13:29:08.126Z,4.90
2023-05-24T13:31:38.865Z,4.80
2023-05-24T13:34:14.918Z,4.80
2023-05-24T13:36:45.088Z,4.80
2023-05-24T13:39:16.483Z,4.80
2023-05-24T13:41:46.873Z,4.80
2023-05-24T13:44:18.449Z,4.80
2023-05-24T13:46:49.941Z,4.80
2023-05-24T13:49:19.400Z,4.80
2023-05-24T13:51:50.098Z,4.80
2023-05-24T13:54:19.529Z,4.80
2023-05-24T13:56:50.775Z,4.80
2023-05-24T13:59:20.372Z,4.80
2023-05-24T14:01:50.118Z,4.80
2023-05-24T14:04:19.664Z,4.70
2023-05-24T14:06:51.789Z,4.70
2023-05-24T14:09:23.289Z,4.70
2023-05-24T14:11:52.772Z,4.70
2023-05-24T14:14:58.485Z,4.70
2023-05-24T14:17:12.793Z,4.70
2023-05-24T14:19:42.356Z,4.60
2023-05-24T14:22:11.874Z,4.60
2023-05-24T14:24:41.731Z,4.60
2023-05-24T14:27:11.730Z,4.50
2023-05-24T14:29:41.137Z,4.50
2023-05-24T14:32:12.265Z,4.40
2023-05-24T14:34:41.736Z,4.50
2023-05-24T14:37:11.621Z,4.40
2023-05-24T14:39:42.383Z,4.50
2023-05-24T14:42:11.897Z,4.50
2023-05-24T14:44:41.744Z,4.40
2023-05-24T14:47:11.638Z,4.50
2023-05-24T14:49:41.497Z,4.50
2023-05-24T14:52:10.923Z,4.50
2023-05-24T14:54:40.752Z,4.50
2023-05-24T14:57:10.993Z,4.50
2023-05-24T14:59:40.504Z,4.50
2023-05-24T15:02:10.419Z,4.50
2023-05-24T15:04:40.672Z,4.60
2023-05-24T15:09:41.905Z,4.60
2023-05-24T15:12:12.496Z,4.60
2023-05-24T15:14:42.384Z,4.60
2023-05-24T15:17:12.469Z,4.60
2023-05-24T15:19:42.133Z,4.60
2023-05-24T15:22:11.548Z,4.50
2023-05-24T15:24:40.949Z,4.50
2023-05-24T15:27:11.328Z,4.60
2023-05-24T15:29:40.775Z,4.60
2023-05-24T15:32:10.582Z,4.60
2023-05-24T15:34:40.574Z,4.70
2023-05-24T15:37:10.402Z,4.70
2023-05-24T15:39:39.980Z,4.60
2023-05-24T15:42:09.631Z,4.60
2023-05-24T15:44:39.485Z,4.60
2023-05-24T15:47:09.353Z,4.60
2023-05-24T15:49:38.938Z,4.60
2023-05-24T15:52:09.046Z,4.70
2023-05-24T15:54:38.829Z,4.80
2023-05-24T15:57:09.238Z,5.00
2023-05-24T15:59:40.146Z,4.90
2023-05-24T16:02:09.913Z,4.90
2023-05-24T16:04:39.374Z,4.80
2023-05-24T16:07:09.025Z,4.80
2023-05-24T16:09:38.522Z,4.70
2023-05-24T16:12:08.031Z,4.60
2023-05-24T16:14:37.454Z,4.80
2023-05-24T16:17:07.022Z,5.00
2023-05-24T16:19:36.514Z,5.20
2023-05-24T16:22:06.660Z,5.40
2023-05-24T16:24:36.238Z,5.60
2023-05-24T16:27:05.649Z,5.80
2023-05-24T16:29:37.088Z,5.90
2023-05-24T16:32:06.853Z,5.80
2023-05-24T16:34:45.108Z,5.70
2023-05-24T16:37:25.223Z,5.60
2023-05-24T16:39:54.872Z,5.50
2023-05-24T16:42:24.297Z,5.40
2023-05-24T16:44:53.690Z,5.30
2023-05-24T16:47:26.833Z,5.20
2023-05-24T16:49:58.261Z,5.20
2023-05-24T16:52:27.715Z,5.20
2023-05-24T16:54:57.249Z,5.10
2023-05-24T16:57:26.666Z,5.10
2023-05-24T16:59:56.552Z,5.10
2023-05-24T17:02:26.070Z,5.00
2023-05-24T17:04:56.024Z,5.10
2023-05-24T17:07:25.554Z,5.10
2023-05-24T17:09:55.402Z,5.00
2023-05-24T17:12:25.476Z,5.00
2023-05-24T17:14:54.904Z,5.00
2023-05-24T17:17:24.808Z,5.00
2023-05-24T17:19:54.646Z,5.00
2023-05-24T17:22:24.063Z,5.00
2023-05-24T17:24:54.042Z,5.20
2023-05-24T17:27:23.523Z,5.20
2023-05-24T17:29:52.950Z,5.20
2023-05-24T17:32:22.421Z,5.30
2023-05-24T17:34:51.904Z,5.40
2023-05-24T17:37:21.310Z,5.60
2023-05-24T17:39:53.860Z,5.70
2023-05-24T17:42:23.680Z,5.80
2023-05-24T17:44:53.073Z,5.90
2023-05-24T17:47:22.514Z,5.90
2023-05-24T17:49:52.975Z,5.80
2023-05-24T17:52:22.806Z,5.80
2023-05-24T17:54:52.466Z,5.70
2023-05-24T17:57:23.034Z,5.80
2023-05-24T18:23:21.290Z,6.50
2023-05-24T18:25:51.858Z,6.50
2023-05-24T18:28:31.438Z,6.50
2023-05-24T18:31:01.890Z,6.50
2023-05-24T18:33:31.587Z,6.60
2023-05-24T18:36:01.248Z,6.60
2023-05-24T18:38:32.079Z,6.60
2023-05-24T18:41:02.990Z,6.70
2023-05-24T18:43:34.307Z,6.60
2023-05-24T18:46:04.022Z,6.70
2023-05-24T18:48:33.817Z,6.70
2023-05-24T18:51:03.223Z,6.80
2023-05-24T18:53:33.095Z,6.80
2023-05-24T18:56:02.613Z,6.80
2023-05-24T18:58:34.636Z,6.80
2023-05-24T19:01:04.598Z,6.80
2023-05-24T19:03:34.213Z,6.80
2023-05-24T19:06:03.687Z,6.90
2023-05-24T19:08:33.161Z,6.80
2023-05-24T19:11:03.508Z,6.80
2023-05-24T19:13:32.985Z,6.80
2023-05-24T19:16:03.486Z,6.80
2023-05-24T19:18:33.440Z,6.80
2023-05-24T19:21:02.878Z,6.80
2023-05-24T19:33:59.156Z,6.80
2023-05-24T19:36:29.172Z,6.80
2023-05-24T19:38:59.020Z,6.70
2023-05-24T19:41:28.742Z,6.70
2023-05-24T19:44:01.786Z,6.70
2023-05-24T19:46:31.376Z,6.70
2023-05-24T19:49:00.866Z,6.70
2023-05-24T19:51:30.337Z,6.70
2023-05-24T19:54:00.183Z,6.70
2023-05-24T19:56:29.693Z,6.60
2023-05-24T19:58:59.657Z,6.70
2023-05-24T20:01:29.619Z,6.60
2023-05-24T20:03:59.368Z,6.70
2023-05-24T20:06:29.585Z,6.60
2023-05-24T20:09:01.352Z,6.70
2023-05-24T20:11:31.175Z,6.60
2023-05-24T20:14:01.975Z,6.60
2023-05-24T20:16:31.916Z,6.60
2023-05-24T20:19:01.420Z,6.60
2023-05-24T20:21:30.912Z,6.60
2023-05-24T20:24:00.324Z,6.60
2023-05-24T20:26:29.798Z,6.60
2023-05-24T20:28:59.679Z,6.50
2023-05-24T20:31:29.374Z,6.60
2023-05-24T20:36:44.793Z,6.60
2023-05-24T20:39:14.222Z,6.60
2023-05-24T20:41:43.669Z,6.60
2023-05-24T20:44:13.125Z,6.70
2023-05-24T20:46:42.942Z,6.70
2023-05-24T20:49:12.494Z,6.70
2023-05-24T20:51:42.070Z,6.70
2023-05-24T20:54:11.547Z,6.70
2023-05-24T20:56:40.983Z,6.60
2023-05-24T20:59:11.810Z,6.60
2023-05-24T21:01:41.265Z,6.60
2023-05-24T21:04:10.822Z,6.60
2023-05-24T21:06:41.081Z,6.50
2023-05-24T21:09:10.929Z,6.50
2023-05-24T21:11:41.296Z,6.50
2023-05-24T21:14:10.825Z,6.50
2023-05-24T21:16:40.280Z,6.50
2023-05-24T21:19:09.751Z,6.50
2023-05-24T21:21:39.735Z,6.50
2023-05-24T21:24:09.676Z,6.50
2023-05-24T21:26:39.527Z,6.50
2023-05-24T21:29:09.379Z,6.50
2023-05-24T21:31:39.216Z,6.50
2023-05-24T21:34:08.720Z,6.40
2023-05-24T21:36:39.290Z,6.50
2023-05-24T21:39:09.968Z,6.50
2023-05-24T21:41:42.401Z,6.40
2023-05-24T21:44:11.934Z,6.50
2023-05-24T21:46:41.376Z,6.50
2023-05-24T21:49:11.286Z,6.40
2023-05-24T21:51:40.779Z,6.40
2023-05-24T21:54:10.253Z,6.40
2023-05-24T21:56:39.657Z,6.50
2023-05-24T21:59:09.355Z,6.50
2023-05-24T22:01:39.260Z,6.50
2023-05-24T22:04:08.756Z,6.60
2023-05-24T22:06:38.516Z,6.60
2023-05-24T22:09:08.891Z,6.70
2023-05-24T22:11:38.425Z,6.70
2023-05-24T22:14:07.980Z,6.70
2023-05-24T22:16:37.642Z,6.80
2023-05-24T22:19:15.007Z,6.80
2023-05-24T22:21:47.472Z,6.80
2023-05-24T22:24:17.018Z,6.90
